N236VA NGFU-ANYN
Flight info
| Callsign | N236VA |
|---|---|
| Flight time | N/A |
| Altitude | FL360 |
| Route | |
| Aircraft | E55P/M-G/N |
Departure
| Time | N/A |
|---|---|
| Airport | Funafuti International Airport (NGFU) |
Arrival
| Time | 2026-04-19 18:16 |
|---|---|
| Airport | Nauru International Airport (ANYN) |
| Time | Latitude | Longitude | Altitude | Speed | Heading |
|---|---|---|---|---|---|
| 2026-04-19 16:34 | -6.47964 | 175.98271 | 36961 ft | 447 kts | 301° |
| 2026-04-19 16:35 | -6.46280 | 175.95653 | 36960 ft | 447 kts | 302° |
| 2026-04-19 16:35 | -6.42892 | 175.90386 | 36959 ft | 447 kts | 302° |
| 2026-04-19 16:36 | -6.39523 | 175.85148 | 36959 ft | 447 kts | 302° |
| 2026-04-19 16:36 | -6.36150 | 175.79906 | 36960 ft | 448 kts | 302° |
| 2026-04-19 16:37 | -6.32760 | 175.74640 | 36958 ft | 448 kts | 302° |
| 2026-04-19 16:37 | -6.29385 | 175.69400 | 36959 ft | 448 kts | 302° |
| 2026-04-19 16:38 | -6.26009 | 175.64157 | 36959 ft | 448 kts | 302° |
| 2026-04-19 16:38 | -6.22632 | 175.58915 | 36960 ft | 447 kts | 302° |
| 2026-04-19 16:39 | -6.19244 | 175.53658 | 36959 ft | 447 kts | 302° |
| 2026-04-19 16:39 | -6.15871 | 175.48427 | 36959 ft | 447 kts | 302° |
| 2026-04-19 16:40 | -6.12495 | 175.43189 | 36959 ft | 447 kts | 302° |
| 2026-04-19 16:40 | -6.09109 | 175.37939 | 36960 ft | 447 kts | 302° |
| 2026-04-19 16:41 | -6.05732 | 175.32707 | 36960 ft | 447 kts | 302° |
| 2026-04-19 16:41 | -6.02355 | 175.27472 | 36960 ft | 447 kts | 302° |
| 2026-04-19 16:42 | -5.98974 | 175.22234 | 36960 ft | 447 kts | 302° |
| 2026-04-19 16:42 | -5.95570 | 175.16963 | 36959 ft | 447 kts | 302° |
| 2026-04-19 16:43 | -5.92187 | 175.11727 | 36960 ft | 447 kts | 302° |
| 2026-04-19 16:43 | -5.88809 | 175.06495 | 36957 ft | 447 kts | 302° |
| 2026-04-19 16:44 | -5.85407 | 175.01231 | 36957 ft | 447 kts | 302° |
| 2026-04-19 16:44 | -5.82020 | 174.95992 | 36955 ft | 447 kts | 302° |
| 2026-04-19 16:45 | -5.78641 | 174.90764 | 36949 ft | 447 kts | 302° |
| 2026-04-19 16:45 | -5.75261 | 174.85538 | 36938 ft | 447 kts | 302° |
| 2026-04-19 16:46 | -5.71865 | 174.80290 | 36940 ft | 447 kts | 302° |
| 2026-04-19 16:46 | -5.68484 | 174.75061 | 36949 ft | 447 kts | 302° |
| 2026-04-19 16:47 | -5.65100 | 174.69835 | 36951 ft | 447 kts | 302° |
| 2026-04-19 16:47 | -5.61711 | 174.64600 | 36956 ft | 447 kts | 302° |
| 2026-04-19 16:48 | -5.58333 | 174.59383 | 36959 ft | 447 kts | 302° |
| 2026-04-19 16:48 | -5.54951 | 174.54161 | 36958 ft | 447 kts | 302° |
| 2026-04-19 16:49 | -5.51563 | 174.48930 | 36959 ft | 447 kts | 302° |
| 2026-04-19 16:49 | -5.48166 | 174.43690 | 36959 ft | 447 kts | 302° |
| 2026-04-19 16:50 | -5.44783 | 174.38467 | 36959 ft | 448 kts | 302° |
| 2026-04-19 16:50 | -5.41395 | 174.33245 | 36959 ft | 448 kts | 302° |
| 2026-04-19 16:51 | -5.37996 | 174.28002 | 36958 ft | 448 kts | 302° |
| 2026-04-19 16:51 | -5.34604 | 174.22771 | 36958 ft | 448 kts | 302° |
| 2026-04-19 16:52 | -5.31213 | 174.17546 | 36901 ft | 449 kts | 302° |
| 2026-04-19 16:52 | -5.27803 | 174.12293 | 36853 ft | 450 kts | 302° |
| 2026-04-19 16:53 | -5.24375 | 174.07010 | 36848 ft | 450 kts | 302° |
| 2026-04-19 16:53 | -5.20963 | 174.01757 | 36849 ft | 450 kts | 302° |
| 2026-04-19 16:54 | -5.17545 | 173.96493 | 36851 ft | 450 kts | 302° |
| 2026-04-19 16:54 | -5.14108 | 173.91203 | 36850 ft | 450 kts | 302° |
| 2026-04-19 16:55 | -5.10667 | 173.85906 | 36850 ft | 450 kts | 302° |
| 2026-04-19 16:55 | -5.05540 | 173.78018 | 36850 ft | 450 kts | 302° |
| 2026-04-19 16:56 | -5.02121 | 173.72759 | 36849 ft | 450 kts | 302° |
| 2026-04-19 16:56 | -4.98697 | 173.67494 | 36851 ft | 450 kts | 302° |
| 2026-04-19 16:57 | -4.95285 | 173.62246 | 36851 ft | 450 kts | 302° |
| 2026-04-19 16:57 | -4.91869 | 173.56997 | 36850 ft | 450 kts | 302° |
| 2026-04-19 16:58 | -4.88437 | 173.51722 | 36849 ft | 451 kts | 302° |
| 2026-04-19 16:58 | -4.85024 | 173.46478 | 36849 ft | 450 kts | 302° |
| 2026-04-19 16:59 | -4.81599 | 173.41216 | 36849 ft | 450 kts | 302° |
| 2026-04-19 16:59 | -4.78182 | 173.35969 | 36851 ft | 450 kts | 302° |
| 2026-04-19 17:00 | -4.74748 | 173.30696 | 36847 ft | 450 kts | 302° |
| 2026-04-19 17:00 | -4.71331 | 173.25450 | 36849 ft | 450 kts | 302° |
| 2026-04-19 17:01 | -4.67908 | 173.20197 | 36850 ft | 450 kts | 302° |
| 2026-04-19 17:01 | -4.64473 | 173.14927 | 36846 ft | 450 kts | 302° |
| 2026-04-19 17:02 | -4.61054 | 173.09681 | 36839 ft | 451 kts | 302° |
| 2026-04-19 17:02 | -4.57626 | 173.04422 | 36828 ft | 451 kts | 302° |
| 2026-04-19 17:03 | -4.54199 | 172.99169 | 36833 ft | 451 kts | 302° |
| 2026-04-19 17:03 | -4.50761 | 172.93898 | 36840 ft | 451 kts | 302° |
| 2026-04-19 17:04 | -4.47339 | 172.88649 | 36843 ft | 451 kts | 302° |
| 2026-04-19 17:04 | -4.43909 | 172.83392 | 36849 ft | 451 kts | 302° |
| 2026-04-19 17:05 | -4.40465 | 172.78119 | 36850 ft | 452 kts | 302° |
| 2026-04-19 17:05 | -4.37033 | 172.72860 | 36848 ft | 452 kts | 302° |
| 2026-04-19 17:06 | -4.33597 | 172.67598 | 36850 ft | 452 kts | 302° |
| 2026-04-19 17:06 | -4.30159 | 172.62333 | 36850 ft | 453 kts | 302° |
| 2026-04-19 17:07 | -4.26709 | 172.57048 | 36850 ft | 453 kts | 302° |
| 2026-04-19 17:07 | -4.23236 | 172.51734 | 36851 ft | 453 kts | 302° |
| 2026-04-19 17:08 | -4.19790 | 172.46460 | 36852 ft | 453 kts | 302° |
| 2026-04-19 17:08 | -4.16317 | 172.41145 | 36850 ft | 454 kts | 302° |
| 2026-04-19 17:09 | -4.12826 | 172.35804 | 36851 ft | 454 kts | 302° |
| 2026-04-19 17:09 | -4.09351 | 172.30489 | 36848 ft | 454 kts | 302° |
| 2026-04-19 17:10 | -4.05879 | 172.25179 | 36849 ft | 454 kts | 302° |
| 2026-04-19 17:10 | -4.02411 | 172.19877 | 36850 ft | 455 kts | 302° |
| 2026-04-19 17:11 | -3.98952 | 172.14590 | 36849 ft | 455 kts | 302° |
| 2026-04-19 17:11 | -3.95485 | 172.09290 | 36849 ft | 455 kts | 302° |
| 2026-04-19 17:12 | -3.91981 | 172.03934 | 36850 ft | 455 kts | 302° |
| 2026-04-19 17:12 | -3.88501 | 171.98619 | 36846 ft | 455 kts | 302° |
| 2026-04-19 17:13 | -3.85026 | 171.93309 | 36848 ft | 455 kts | 302° |
| 2026-04-19 17:13 | -3.81552 | 171.88004 | 36849 ft | 455 kts | 302° |
| 2026-04-19 17:14 | -3.78048 | 171.82655 | 36848 ft | 455 kts | 302° |
| 2026-04-19 17:14 | -3.74574 | 171.77350 | 36850 ft | 455 kts | 302° |
| 2026-04-19 17:15 | -3.71105 | 171.72052 | 36848 ft | 455 kts | 302° |
| 2026-04-19 17:15 | -3.67627 | 171.66746 | 36849 ft | 455 kts | 302° |
| 2026-04-19 17:16 | -3.64157 | 171.61450 | 36848 ft | 455 kts | 302° |
| 2026-04-19 17:16 | -3.60690 | 171.56159 | 36845 ft | 456 kts | 302° |
| 2026-04-19 17:17 | -3.57219 | 171.50864 | 36839 ft | 456 kts | 302° |
| 2026-04-19 17:17 | -3.53730 | 171.45543 | 36833 ft | 456 kts | 302° |
| 2026-04-19 17:18 | -3.50254 | 171.40241 | 36829 ft | 456 kts | 302° |
| 2026-04-19 17:18 | -3.46779 | 171.34944 | 36829 ft | 457 kts | 302° |
| 2026-04-19 17:19 | -3.43289 | 171.29621 | 36826 ft | 457 kts | 303° |
| 2026-04-19 17:19 | -3.39812 | 171.24323 | 36827 ft | 456 kts | 302° |
| 2026-04-19 17:20 | -3.36332 | 171.19018 | 36828 ft | 456 kts | 303° |
| 2026-04-19 17:20 | -3.32850 | 171.13714 | 36830 ft | 456 kts | 302° |
| 2026-04-19 17:21 | -3.29362 | 171.08398 | 36833 ft | 456 kts | 302° |
| 2026-04-19 17:21 | -3.25881 | 171.03096 | 36836 ft | 456 kts | 302° |
| 2026-04-19 17:22 | -3.22405 | 170.97801 | 36840 ft | 456 kts | 302° |
| 2026-04-19 17:22 | -3.18911 | 170.92480 | 36846 ft | 456 kts | 302° |
| 2026-04-19 17:23 | -3.15438 | 170.87192 | 36847 ft | 456 kts | 302° |
| 2026-04-19 17:23 | -3.11960 | 170.81895 | 36850 ft | 456 kts | 302° |
| 2026-04-19 17:24 | -3.08481 | 170.76601 | 36851 ft | 457 kts | 302° |
| 2026-04-19 17:24 | -3.04987 | 170.71282 | 36850 ft | 457 kts | 303° |
| 2026-04-19 17:25 | -3.01502 | 170.65978 | 36849 ft | 457 kts | 303° |
| 2026-04-19 17:25 | -2.98018 | 170.60677 | 36851 ft | 457 kts | 303° |
| 2026-04-19 17:26 | -2.94521 | 170.55356 | 36850 ft | 457 kts | 303° |
| 2026-04-19 17:26 | -2.91034 | 170.50051 | 36851 ft | 457 kts | 303° |
| 2026-04-19 17:27 | -2.87548 | 170.44750 | 36850 ft | 457 kts | 303° |
| 2026-04-19 17:27 | -2.84058 | 170.39442 | 36849 ft | 457 kts | 303° |
| 2026-04-19 17:28 | -2.80557 | 170.34118 | 36850 ft | 457 kts | 303° |
| 2026-04-19 17:28 | -2.77072 | 170.28820 | 36848 ft | 457 kts | 303° |
| 2026-04-19 17:29 | -2.73588 | 170.23521 | 36849 ft | 457 kts | 303° |
| 2026-04-19 17:29 | -2.70070 | 170.18176 | 36848 ft | 456 kts | 303° |
| 2026-04-19 17:30 | -2.66575 | 170.12863 | 36848 ft | 456 kts | 303° |
| 2026-04-19 17:30 | -2.63113 | 170.07544 | 36848 ft | 456 kts | 303° |
| 2026-04-19 17:31 | -2.59662 | 170.02238 | 36848 ft | 456 kts | 303° |
| 2026-04-19 17:31 | -2.56193 | 169.96902 | 36851 ft | 456 kts | 303° |
| 2026-04-19 17:32 | -2.52717 | 169.91557 | 36850 ft | 456 kts | 303° |
| 2026-04-19 17:32 | -2.49254 | 169.86233 | 36844 ft | 456 kts | 303° |
| 2026-04-19 17:33 | -2.45781 | 169.80891 | 36833 ft | 456 kts | 303° |
| 2026-04-19 17:33 | -2.42315 | 169.75564 | 36713 ft | 451 kts | 303° |
| 2026-04-19 17:34 | -2.40645 | 169.72994 | 36517 ft | 432 kts | 303° |
| 2026-04-19 17:34 | -2.39035 | 169.70520 | 36314 ft | 413 kts | 303° |
| 2026-04-19 17:34 | -2.37497 | 169.68155 | 36108 ft | 396 kts | 303° |
| 2026-04-19 17:34 | -2.36010 | 169.65869 | 35902 ft | 380 kts | 303° |
| 2026-04-19 17:35 | -2.34584 | 169.63680 | 35818 ft | 362 kts | 303° |
| 2026-04-19 17:35 | -2.33249 | 169.61629 | 35803 ft | 344 kts | 303° |
| 2026-04-19 17:35 | -2.31978 | 169.59677 | 35801 ft | 326 kts | 303° |
| 2026-04-19 17:35 | -2.30777 | 169.57829 | 35802 ft | 312 kts | 303° |
| 2026-04-19 17:36 | -2.28384 | 169.54152 | 35835 ft | 321 kts | 303° |
| 2026-04-19 17:36 | -2.27174 | 169.52292 | 35590 ft | 319 kts | 303° |
| 2026-04-19 17:36 | -2.25958 | 169.50421 | 35245 ft | 320 kts | 304° |
| 2026-04-19 17:37 | -2.24745 | 169.48558 | 34907 ft | 321 kts | 304° |
| 2026-04-19 17:37 | -2.23529 | 169.46691 | 34569 ft | 321 kts | 304° |
| 2026-04-19 17:37 | -2.22315 | 169.44826 | 34233 ft | 322 kts | 304° |
| 2026-04-19 17:37 | -2.21095 | 169.42952 | 33893 ft | 322 kts | 304° |
| 2026-04-19 17:38 | -2.19875 | 169.41077 | 33554 ft | 323 kts | 304° |
| 2026-04-19 17:38 | -2.18653 | 169.39200 | 33216 ft | 323 kts | 304° |
| 2026-04-19 17:38 | -2.17420 | 169.37306 | 32875 ft | 324 kts | 304° |
| 2026-04-19 17:38 | -2.16196 | 169.35426 | 32551 ft | 324 kts | 304° |
| 2026-04-19 17:39 | -2.14939 | 169.33498 | 32254 ft | 340 kts | 304° |
| 2026-04-19 17:39 | -2.13622 | 169.31476 | 31970 ft | 356 kts | 304° |
| 2026-04-19 17:39 | -2.12228 | 169.29337 | 31683 ft | 372 kts | 304° |
| 2026-04-19 17:39 | -2.10781 | 169.27117 | 31393 ft | 387 kts | 304° |
| 2026-04-19 17:40 | -2.09292 | 169.24827 | 31099 ft | 401 kts | 304° |
| 2026-04-19 17:40 | -2.07736 | 169.22436 | 30803 ft | 414 kts | 304° |
| 2026-04-19 17:40 | -2.06142 | 169.19992 | 30505 ft | 426 kts | 304° |
| 2026-04-19 17:40 | -2.04507 | 169.17479 | 30206 ft | 437 kts | 304° |
| 2026-04-19 17:41 | -2.02831 | 169.14904 | 29903 ft | 447 kts | 304° |
| 2026-04-19 17:41 | -2.01116 | 169.12273 | 29601 ft | 457 kts | 304° |
| 2026-04-19 17:41 | -1.99372 | 169.09593 | 29295 ft | 465 kts | 304° |
| 2026-04-19 17:41 | -1.97596 | 169.06868 | 28988 ft | 472 kts | 304° |
| 2026-04-19 17:42 | -1.95782 | 169.04086 | 28678 ft | 479 kts | 304° |
| 2026-04-19 17:42 | -1.93958 | 169.01286 | 28381 ft | 484 kts | 304° |
| 2026-04-19 17:42 | -1.92115 | 168.98457 | 28095 ft | 484 kts | 304° |
| 2026-04-19 17:42 | -1.90317 | 168.95692 | 27799 ft | 467 kts | 304° |
| 2026-04-19 17:43 | -1.88573 | 168.93015 | 27497 ft | 452 kts | 304° |
| 2026-04-19 17:43 | -1.86889 | 168.90429 | 27191 ft | 438 kts | 304° |
| 2026-04-19 17:43 | -1.85256 | 168.87920 | 26885 ft | 426 kts | 304° |
| 2026-04-19 17:43 | -1.83650 | 168.85456 | 26576 ft | 415 kts | 304° |
| 2026-04-19 17:44 | -1.82089 | 168.83066 | 26274 ft | 406 kts | 304° |
| 2026-04-19 17:44 | -1.80571 | 168.80733 | 25972 ft | 397 kts | 304° |
| 2026-04-19 17:44 | -1.79078 | 168.78446 | 25672 ft | 389 kts | 304° |
| 2026-04-19 17:44 | -1.77618 | 168.76204 | 25374 ft | 383 kts | 304° |
| 2026-04-19 17:45 | -1.76177 | 168.73995 | 25074 ft | 376 kts | 304° |
| 2026-04-19 17:45 | -1.74763 | 168.71825 | 24776 ft | 370 kts | 304° |
| 2026-04-19 17:45 | -1.73358 | 168.69669 | 24477 ft | 365 kts | 304° |
| 2026-04-19 17:45 | -1.71985 | 168.67563 | 24179 ft | 360 kts | 303° |
| 2026-04-19 17:46 | -1.70629 | 168.65483 | 23883 ft | 356 kts | 303° |
| 2026-04-19 17:46 | -1.69285 | 168.63421 | 23587 ft | 352 kts | 303° |
| 2026-04-19 17:46 | -1.67959 | 168.61389 | 23298 ft | 348 kts | 303° |
| 2026-04-19 17:46 | -1.66651 | 168.59378 | 23006 ft | 344 kts | 303° |
| 2026-04-19 17:47 | -1.65355 | 168.57388 | 22715 ft | 341 kts | 303° |
| 2026-04-19 17:47 | -1.64059 | 168.55401 | 22423 ft | 337 kts | 303° |
| 2026-04-19 17:47 | -1.62787 | 168.53452 | 22136 ft | 334 kts | 303° |
| 2026-04-19 17:47 | -1.61526 | 168.51517 | 21856 ft | 332 kts | 303° |
| 2026-04-19 17:48 | -1.60274 | 168.49595 | 21575 ft | 329 kts | 303° |
| 2026-04-19 17:48 | -1.59032 | 168.47691 | 21297 ft | 327 kts | 303° |
| 2026-04-19 17:48 | -1.57791 | 168.45789 | 21019 ft | 325 kts | 303° |
| 2026-04-19 17:48 | -1.56563 | 168.43904 | 20738 ft | 323 kts | 303° |
| 2026-04-19 17:49 | -1.55331 | 168.42014 | 20457 ft | 322 kts | 303° |
| 2026-04-19 17:49 | -1.54114 | 168.40148 | 20180 ft | 320 kts | 303° |
| 2026-04-19 17:49 | -1.52905 | 168.38291 | 19901 ft | 319 kts | 303° |
| 2026-04-19 17:49 | -1.51698 | 168.36442 | 19625 ft | 318 kts | 303° |
| 2026-04-19 17:50 | -1.50493 | 168.34592 | 19345 ft | 317 kts | 303° |
| 2026-04-19 17:50 | -1.49293 | 168.32753 | 19064 ft | 316 kts | 303° |
| 2026-04-19 17:50 | -1.48100 | 168.30923 | 18782 ft | 315 kts | 303° |
| 2026-04-19 17:50 | -1.46899 | 168.29082 | 18500 ft | 314 kts | 304° |
| 2026-04-19 17:51 | -1.45711 | 168.27261 | 18218 ft | 313 kts | 303° |
| 2026-04-19 17:51 | -1.44526 | 168.25443 | 17935 ft | 312 kts | 304° |
| 2026-04-19 17:51 | -1.43340 | 168.23624 | 17651 ft | 312 kts | 304° |
| 2026-04-19 17:51 | -1.42159 | 168.21815 | 17369 ft | 311 kts | 304° |
| 2026-04-19 17:52 | -1.40983 | 168.20011 | 17091 ft | 310 kts | 304° |
| 2026-04-19 17:52 | -1.39809 | 168.18211 | 16815 ft | 309 kts | 304° |
| 2026-04-19 17:52 | -1.38630 | 168.16404 | 16536 ft | 308 kts | 304° |
| 2026-04-19 17:52 | -1.37463 | 168.14611 | 16257 ft | 307 kts | 304° |
| 2026-04-19 17:53 | -1.36295 | 168.12821 | 15979 ft | 306 kts | 304° |
| 2026-04-19 17:53 | -1.35134 | 168.11043 | 15697 ft | 306 kts | 304° |
| 2026-04-19 17:53 | -1.33979 | 168.09272 | 15421 ft | 304 kts | 304° |
| 2026-04-19 17:53 | -1.32828 | 168.07505 | 15141 ft | 303 kts | 304° |
| 2026-04-19 17:54 | -1.31681 | 168.05747 | 14861 ft | 302 kts | 304° |
| 2026-04-19 17:54 | -1.30527 | 168.03977 | 14580 ft | 301 kts | 304° |
| 2026-04-19 17:54 | -1.29385 | 168.02230 | 14300 ft | 300 kts | 304° |
| 2026-04-19 17:54 | -1.28252 | 168.00490 | 14020 ft | 299 kts | 304° |
| 2026-04-19 17:55 | -1.27119 | 167.98753 | 13740 ft | 298 kts | 305° |
| 2026-04-19 17:55 | -1.25991 | 167.97027 | 13458 ft | 297 kts | 305° |
| 2026-04-19 17:55 | -1.24869 | 167.95305 | 13179 ft | 295 kts | 305° |
| 2026-04-19 17:55 | -1.24031 | 167.94021 | 12964 ft | 295 kts | 305° |
| 2026-04-19 17:56 | -1.22903 | 167.92294 | 12675 ft | 293 kts | 305° |
| 2026-04-19 17:56 | -1.21791 | 167.90588 | 12388 ft | 292 kts | 305° |
| 2026-04-19 17:56 | -1.20687 | 167.88900 | 12153 ft | 289 kts | 305° |
| 2026-04-19 17:56 | -1.19601 | 167.87230 | 11957 ft | 284 kts | 305° |
| 2026-04-19 17:57 | -1.18530 | 167.85592 | 11763 ft | 280 kts | 304° |
| 2026-04-19 17:57 | -1.17471 | 167.83970 | 11569 ft | 277 kts | 305° |
| 2026-04-19 17:57 | -1.16428 | 167.82368 | 11375 ft | 274 kts | 304° |
| 2026-04-19 17:57 | -1.15384 | 167.80772 | 11181 ft | 271 kts | 305° |
| 2026-04-19 17:58 | -1.14358 | 167.79197 | 10988 ft | 269 kts | 305° |
| 2026-04-19 17:58 | -1.13338 | 167.77634 | 10796 ft | 267 kts | 304° |
| 2026-04-19 17:58 | -1.12327 | 167.76088 | 10604 ft | 265 kts | 304° |
| 2026-04-19 17:58 | -1.11326 | 167.74552 | 10413 ft | 263 kts | 304° |
| 2026-04-19 17:59 | -1.10332 | 167.73026 | 10220 ft | 261 kts | 304° |
| 2026-04-19 17:59 | -1.09346 | 167.71515 | 10029 ft | 259 kts | 305° |
| 2026-04-19 17:59 | -1.08357 | 167.70001 | 9838 ft | 258 kts | 305° |
| 2026-04-19 17:59 | -1.07380 | 167.68505 | 9646 ft | 256 kts | 305° |
| 2026-04-19 18:00 | -1.06412 | 167.67020 | 9456 ft | 255 kts | 305° |
| 2026-04-19 18:00 | -1.05446 | 167.65541 | 9267 ft | 254 kts | 305° |
| 2026-04-19 18:00 | -1.04486 | 167.64065 | 9076 ft | 253 kts | 305° |
| 2026-04-19 18:00 | -1.03523 | 167.62595 | 8886 ft | 252 kts | 305° |
| 2026-04-19 18:01 | -1.02572 | 167.61133 | 8696 ft | 251 kts | 305° |
| 2026-04-19 18:01 | -1.01614 | 167.59665 | 8504 ft | 250 kts | 305° |
| 2026-04-19 18:01 | -1.00665 | 167.58217 | 8316 ft | 249 kts | 305° |
| 2026-04-19 18:01 | -0.99722 | 167.56770 | 8126 ft | 248 kts | 305° |
| 2026-04-19 18:02 | -0.98780 | 167.55326 | 7937 ft | 248 kts | 305° |
| 2026-04-19 18:02 | -0.97841 | 167.53887 | 7747 ft | 247 kts | 305° |
| 2026-04-19 18:02 | -0.96907 | 167.52451 | 7557 ft | 247 kts | 305° |
| 2026-04-19 18:02 | -0.95971 | 167.51020 | 7367 ft | 246 kts | 305° |
| 2026-04-19 18:03 | -0.95032 | 167.49580 | 7178 ft | 246 kts | 305° |
| 2026-04-19 18:03 | -0.94099 | 167.48155 | 6990 ft | 245 kts | 305° |
| 2026-04-19 18:03 | -0.93170 | 167.46731 | 6803 ft | 245 kts | 305° |
| 2026-04-19 18:03 | -0.92242 | 167.45310 | 6614 ft | 244 kts | 305° |
| 2026-04-19 18:04 | -0.91317 | 167.43889 | 6424 ft | 244 kts | 305° |
| 2026-04-19 18:04 | -0.90384 | 167.42460 | 6235 ft | 244 kts | 305° |
| 2026-04-19 18:04 | -0.89457 | 167.41042 | 6047 ft | 243 kts | 305° |
| 2026-04-19 18:04 | -0.88519 | 167.39602 | 5859 ft | 243 kts | 305° |
| 2026-04-19 18:05 | -0.87592 | 167.38180 | 5675 ft | 242 kts | 306° |
| 2026-04-19 18:05 | -0.86672 | 167.36773 | 5492 ft | 242 kts | 305° |
| 2026-04-19 18:05 | -0.85756 | 167.35370 | 5308 ft | 241 kts | 305° |
| 2026-04-19 18:05 | -0.84839 | 167.33966 | 5115 ft | 241 kts | 305° |
| 2026-04-19 18:06 | -0.83931 | 167.32573 | 4972 ft | 237 kts | 306° |
| 2026-04-19 18:06 | -0.83038 | 167.31201 | 4844 ft | 234 kts | 306° |
| 2026-04-19 18:06 | -0.82149 | 167.29839 | 4717 ft | 231 kts | 306° |
| 2026-04-19 18:06 | -0.81275 | 167.28499 | 4592 ft | 228 kts | 306° |
| 2026-04-19 18:07 | -0.79568 | 167.25885 | 4341 ft | 221 kts | 306° |
| 2026-04-19 18:07 | -0.78738 | 167.24615 | 4214 ft | 217 kts | 306° |
| 2026-04-19 18:07 | -0.77923 | 167.23362 | 4089 ft | 213 kts | 306° |
| 2026-04-19 18:08 | -0.77117 | 167.22130 | 3965 ft | 211 kts | 306° |
| 2026-04-19 18:08 | -0.76318 | 167.20906 | 3840 ft | 208 kts | 306° |
| 2026-04-19 18:08 | -0.75532 | 167.19703 | 3715 ft | 205 kts | 306° |
| 2026-04-19 18:08 | -0.74757 | 167.18513 | 3591 ft | 203 kts | 306° |
| 2026-04-19 18:09 | -0.73988 | 167.17335 | 3469 ft | 201 kts | 306° |
| 2026-04-19 18:09 | -0.73228 | 167.16173 | 3347 ft | 199 kts | 307° |
| 2026-04-19 18:09 | -0.72475 | 167.15017 | 3226 ft | 197 kts | 307° |
| 2026-04-19 18:09 | -0.71727 | 167.13874 | 3103 ft | 196 kts | 307° |
| 2026-04-19 18:10 | -0.70982 | 167.12731 | 2979 ft | 195 kts | 307° |
| 2026-04-19 18:10 | -0.70247 | 167.11605 | 2859 ft | 193 kts | 307° |
| 2026-04-19 18:10 | -0.69516 | 167.10487 | 2739 ft | 192 kts | 306° |
| 2026-04-19 18:10 | -0.68813 | 167.09409 | 2705 ft | 177 kts | 306° |
| 2026-04-19 18:11 | -0.68155 | 167.08395 | 2560 ft | 169 kts | 307° |
| 2026-04-19 18:11 | -0.67521 | 167.07425 | 2423 ft | 163 kts | 307° |
| 2026-04-19 18:11 | -0.66902 | 167.06481 | 2293 ft | 158 kts | 307° |
| 2026-04-19 18:11 | -0.66305 | 167.05561 | 2199 ft | 151 kts | 308° |
| 2026-04-19 18:12 | -0.65696 | 167.04721 | 2062 ft | 145 kts | 317° |
| 2026-04-19 18:12 | -0.65033 | 167.03978 | 1933 ft | 142 kts | 317° |
| 2026-04-19 18:12 | -0.64384 | 167.03229 | 1805 ft | 140 kts | 316° |
| 2026-04-19 18:12 | -0.63719 | 167.02457 | 1691 ft | 143 kts | 316° |
| 2026-04-19 18:13 | -0.63054 | 167.01680 | 1582 ft | 145 kts | 315° |
| 2026-04-19 18:13 | -0.62408 | 167.00919 | 1550 ft | 141 kts | 315° |
| 2026-04-19 18:13 | -0.61804 | 167.00203 | 1640 ft | 127 kts | 316° |
| 2026-04-19 18:13 | -0.61243 | 166.99541 | 1666 ft | 121 kts | 316° |
| 2026-04-19 18:14 | -0.60659 | 166.98867 | 1638 ft | 144 kts | 315° |
| 2026-04-19 18:14 | -0.59981 | 166.98070 | 1515 ft | 152 kts | 314° |
| 2026-04-19 18:14 | -0.59309 | 166.97275 | 1290 ft | 147 kts | 315° |
| 2026-04-19 18:14 | -0.58660 | 166.96511 | 1066 ft | 142 kts | 316° |
| 2026-04-19 18:15 | -0.58033 | 166.95771 | 864 ft | 137 kts | 315° |
| 2026-04-19 18:15 | -0.57411 | 166.95042 | 671 ft | 133 kts | 315° |
| 2026-04-19 18:15 | -0.56813 | 166.94341 | 492 ft | 132 kts | 316° |
| 2026-04-19 18:15 | -0.56219 | 166.93643 | 319 ft | 131 kts | 316° |
| 2026-04-19 18:16 | -0.55629 | 166.92948 | 149 ft | 130 kts | 317° |
| 2026-04-19 18:16 | -0.55055 | 166.92256 | 18 ft | 125 kts | 316° |
| 2026-04-19 18:16 | -0.54505 | 166.91629 | 4 ft | 111 kts | 309° |
| 2026-04-19 18:16 | -0.54181 | 166.91238 | 9 ft | 24 kts | 311° |
| 2026-04-19 18:17 | -0.54139 | 166.91208 | 9 ft | 9 kts | 186° |
| 2026-04-19 18:17 | -0.54189 | 166.91250 | 10 ft | 10 kts | 144° |
| 2026-04-19 18:17 | -0.54241 | 166.91308 | 10 ft | 13 kts | 127° |
| 2026-04-19 18:17 | -0.54305 | 166.91386 | 8 ft | 17 kts | 128° |
| 2026-04-19 18:18 | -0.54388 | 166.91487 | 5 ft | 20 kts | 132° |
| 2026-04-19 18:18 | -0.54482 | 166.91597 | 3 ft | 21 kts | 127° |
| 2026-04-19 18:18 | -0.54472 | 166.91675 | 5 ft | 7 kts | 42° |
| 2026-04-19 18:18 | -0.54440 | 166.91688 | 6 ft | 1 kts | 10° |
| 2026-04-19 18:19 | -0.54437 | 166.91688 | 6 ft | 2 kts | 8° |
| 2026-04-19 18:19 | -0.54429 | 166.91690 | 7 ft | 0 kts | 8° |